GCRR Airport Information

Runway Information
Runway 03 Length 7874 ft width 148 ft
Elevation 18 ft Threshold 0 ft Heading 27
Runway 21 Length 7874 ft Width 148 ft
Elevation 47 ft Threshold 0 ft Heading 207
Airport Frequencies
Type APP Name CANARIAS A Frequency 129.3 MHZ
Type ATIS Name ATIS Frequency 118.625 MHZ
Type GND Name GND Frequency 121.8 MHZ
Type TWR Name TWR Frequency 120.7 MHZ
Airport Navaids
Type VOR-DME Name Lanzarote Frequency 113700 KHZ
Type NDB Name Lanzarote Frequency 310 KHZ
Type VOR-DME Name Lanzarote Frequency 115200 KHZ
Type TACAN Name Lanzarote Frequency 114700 KHZ
Airport Weather Information & NOTAM
ADDS - METARS form results

(1810 UTC 22 March 2019)
Data provider http://aviationweather.gov/metar/data/
 
METAR text: GCRR 221800Z 01020KT 9999 FEW025 21/14 Q1013
Conditions at: GCRR (ARRECIFE/LANZARO, ES) observed 1800 UTC 22 March 2019
Temperature: 21.0°C (70°F)
Dewpoint: 14.0°C (57°F) [RH = 64%]
Pressure (altimeter): 29.91 inches Hg (1013.0 mb)
Winds: from the N (10 degrees) at 23 MPH (20 knots; 10.3 m/s)
Visibility: 6 or more miles (10+ km)
Ceiling: at least 12,000 feet AGL
Clouds: few clouds at 2500 feet AGL
Weather: no significant weather observed at this time

METAR text: GCRR 221730Z 36019KT 9999 FEW025 21/14 Q1013
Conditions at: GCRR (ARRECIFE/LANZARO, ES) observed 1730 UTC 22 March 2019
Temperature: 21.0°C (70°F)
Dewpoint: 14.0°C (57°F) [RH = 64%]
Pressure (altimeter): 29.91 inches Hg (1013.0 mb)
Winds: from the N (360 degrees) at 22 MPH (19 knots; 9.8 m/s)
Visibility: 6 or more miles (10+ km)
Ceiling: at least 12,000 feet AGL
Clouds: few clouds at 2500 feet AGL
Weather: no significant weather observed at this time

Forecast for: GCRR (ARRECIFE/LANZARO, ES)
Text: TAF GCRR 221400Z 2215/2315 03018KT 9999 FEW025 TX23/2215Z TN14/2306Z
Forecast period: 1500 UTC 22 March 2019 to 1500 UTC 23 March 2019
Forecast type: FROM: standard forecast or significant change
Winds: from the NNE (30 degrees) at 21 MPH (18 knots; 9.3 m/s)
Visibility: 6 or more miles 10+ km)
Ceiling: at least 12,000 feet AGL
Clouds: few clouds at 2500 feet AGL
Weather: no significant weather forecast for this period